createdAt,value
2022-11-21T00:00:58.196Z,-3.00
2022-11-21T00:03:27.229Z,-3.00
2022-11-21T00:05:55.925Z,-3.10
2022-11-21T00:08:29.814Z,-3.00
2022-11-21T00:11:02.462Z,-3.10
2022-11-21T00:13:32.620Z,-3.20
2022-11-21T00:16:10.668Z,-3.20
2022-11-21T00:18:41.065Z,-3.20
2022-11-21T00:21:13.812Z,-3.20
2022-11-21T00:23:43.093Z,-3.20
2022-11-21T00:26:14.255Z,-3.30
2022-11-21T00:28:44.202Z,-3.30
2022-11-21T00:31:23.111Z,-3.30
2022-11-21T00:33:58.015Z,-3.30
2022-11-21T00:36:33.328Z,-3.30
2022-11-21T00:39:02.303Z,-3.20
2022-11-21T00:41:31.082Z,-3.10
2022-11-21T00:44:00.024Z,-3.00
2022-11-21T00:46:30.534Z,-3.00
2022-11-21T00:48:59.319Z,-2.90
2022-11-21T00:51:27.940Z,-2.90
2022-11-21T00:53:57.766Z,-2.80
2022-11-21T00:56:26.394Z,-2.70
2022-11-21T00:58:55.057Z,-2.70
2022-11-21T01:01:23.759Z,-2.70
2022-11-21T01:03:53.991Z,-2.60
2022-11-21T01:06:22.568Z,-2.60
2022-11-21T01:08:54.435Z,-2.60
2022-11-21T01:11:24.359Z,-2.50
2022-11-21T01:13:56.284Z,-2.50
2022-11-21T01:16:29.742Z,-2.50
2022-11-21T01:18:59.935Z,-2.60
2022-11-21T01:21:31.000Z,-2.60
2022-11-21T01:24:01.832Z,-2.60
2022-11-21T01:26:33.704Z,-2.70
2022-11-21T01:29:02.358Z,-2.80
2022-11-21T01:31:32.470Z,-2.90
2022-11-21T01:34:03.670Z,-3.00
2022-11-21T01:36:34.345Z,-3.20
2022-11-21T01:39:06.101Z,-3.30
2022-11-21T01:41:36.553Z,-3.30
2022-11-21T01:44:12.245Z,-3.40
2022-11-21T01:46:40.813Z,-3.40
2022-11-21T01:49:13.998Z,-3.50
2022-11-21T01:51:46.865Z,-3.50
2022-11-21T01:54:20.240Z,-3.40
2022-11-21T01:56:52.851Z,-3.40
2022-11-21T01:59:26.802Z,-3.30
2022-11-21T02:01:57.554Z,-3.20
2022-11-21T02:04:32.263Z,-3.20
2022-11-21T02:07:03.330Z,-3.20
2022-11-21T02:09:35.066Z,-3.20
2022-11-21T02:12:09.400Z,-3.20
2022-11-21T02:14:40.050Z,-3.20
2022-11-21T02:17:11.064Z,-3.30
2022-11-21T02:19:48.745Z,-3.30
2022-11-21T02:22:27.575Z,-3.40
2022-11-21T02:25:16.347Z,-3.50
2022-11-21T02:27:44.963Z,-3.60
2022-11-21T02:30:14.815Z,-3.70
2022-11-21T02:32:46.915Z,-3.80
2022-11-21T02:35:17.411Z,-3.90
2022-11-21T02:37:48.524Z,-3.90
2022-11-21T02:40:22.292Z,-4.00
2022-11-21T02:43:00.539Z,-4.00
2022-11-21T02:45:33.661Z,-4.10
2022-11-21T02:48:04.271Z,-4.10
2022-11-21T02:50:34.664Z,-4.20
2022-11-21T02:53:04.268Z,-4.20
2022-11-21T02:55:34.449Z,-4.20
2022-11-21T02:58:05.490Z,-4.30
2022-11-21T03:00:35.257Z,-4.30
2022-11-21T03:03:04.676Z,-4.30
2022-11-21T03:05:33.538Z,-4.40
2022-11-21T03:08:02.340Z,-4.40
2022-11-21T03:10:31.163Z,-4.50
2022-11-21T03:13:02.241Z,-4.50
2022-11-21T03:15:32.845Z,-4.50
2022-11-21T03:18:03.275Z,-4.60
2022-11-21T03:20:32.670Z,-4.60
2022-11-21T03:23:01.432Z,-4.60
2022-11-21T03:25:30.426Z,-4.70
2022-11-21T03:28:00.465Z,-4.70
2022-11-21T03:30:29.287Z,-4.70
2022-11-21T03:32:58.333Z,-4.70
2022-11-21T03:35:29.801Z,-4.80
2022-11-21T03:37:58.438Z,-4.80
2022-11-21T03:40:27.174Z,-4.90
2022-11-21T03:42:55.894Z,-4.90
2022-11-21T03:45:26.173Z,-4.90
2022-11-21T03:47:55.249Z,-4.90
2022-11-21T03:50:23.901Z,-4.90
2022-11-21T03:52:52.588Z,-4.90
2022-11-21T03:55:21.319Z,-4.90
2022-11-21T03:57:49.905Z,-4.90
2022-11-21T04:00:19.315Z,-5.00
2022-11-21T04:02:49.309Z,-5.00
2022-11-21T04:05:19.122Z,-5.00
2022-11-21T04:07:48.595Z,-5.00
2022-11-21T04:10:19.693Z,-5.00
2022-11-21T04:12:52.474Z,-5.00
2022-11-21T04:15:21.720Z,-5.10
2022-11-21T04:17:52.044Z,-5.10
2022-11-21T04:20:22.672Z,-5.10
2022-11-21T04:22:52.568Z,-5.20
2022-11-21T04:25:21.337Z,-5.20
2022-11-21T04:27:51.059Z,-5.20
2022-11-21T04:30:20.721Z,-5.20
2022-11-21T04:32:55.403Z,-5.20
2022-11-21T04:35:26.298Z,-5.20
2022-11-21T04:37:55.582Z,-5.20
2022-11-21T04:40:25.759Z,-5.20
2022-11-21T04:42:59.314Z,-5.20
2022-11-21T04:45:33.425Z,-5.30
2022-11-21T04:48:10.077Z,-5.30
2022-11-21T04:50:39.121Z,-5.30
2022-11-21T04:53:07.785Z,-5.30
2022-11-21T04:55:39.801Z,-5.30
2022-11-21T04:58:16.088Z,-5.40
2022-11-21T05:00:52.832Z,-5.40
2022-11-21T05:03:23.231Z,-5.40
2022-11-21T05:05:51.984Z,-5.40
2022-11-21T05:08:22.402Z,-5.40
2022-11-21T05:11:08.267Z,-5.40
2022-11-21T05:13:37.684Z,-5.40
2022-11-21T05:16:08.504Z,-5.50
2022-11-21T05:18:42.486Z,-5.50
2022-11-21T05:21:18.008Z,-5.50
2022-11-21T05:23:53.111Z,-5.60
2022-11-21T05:26:23.752Z,-5.60
2022-11-21T05:28:55.338Z,-5.60
2022-11-21T05:31:26.622Z,-5.60
2022-11-21T05:33:57.695Z,-5.60
2022-11-21T05:36:26.424Z,-5.60
2022-11-21T05:38:55.339Z,-5.50
2022-11-21T05:41:24.103Z,-5.50
2022-11-21T05:43:57.651Z,-5.60
2022-11-21T05:46:27.832Z,-5.60
2022-11-21T05:48:58.363Z,-5.60
2022-11-21T05:51:27.046Z,-5.60
2022-11-21T05:53:55.875Z,-5.60
2022-11-21T05:56:24.689Z,-5.60
2022-11-21T05:58:53.684Z,-5.60
2022-11-21T06:01:36.678Z,-5.60
2022-11-21T06:04:07.323Z,-5.90
2022-11-21T06:06:36.559Z,-5.70
2022-11-21T06:09:06.226Z,-5.60
2022-11-21T06:11:35.536Z,-5.60
2022-11-21T06:14:04.238Z,-5.60
2022-11-21T06:16:33.525Z,-5.60
2022-11-21T06:19:02.209Z,-5.60
2022-11-21T06:21:37.519Z,-5.50
2022-11-21T06:24:24.629Z,-5.50
2022-11-21T06:27:09.292Z,-5.40
2022-11-21T06:29:39.529Z,-5.40
2022-11-21T06:32:08.184Z,-5.20
2022-11-21T06:34:37.316Z,-5.10
2022-11-21T06:37:07.793Z,-5.00
2022-11-21T06:39:36.458Z,-4.90
2022-11-21T06:42:05.227Z,-4.90
2022-11-21T06:44:33.848Z,-4.80
2022-11-21T06:47:02.539Z,-4.70
2022-11-21T06:49:31.250Z,-4.70
2022-11-21T06:51:59.848Z,-4.60
2022-11-21T06:54:30.430Z,-4.50
2022-11-21T06:56:59.580Z,-4.40
2022-11-21T06:59:28.207Z,-4.40
2022-11-21T07:01:56.918Z,-4.40
2022-11-21T07:04:26.030Z,-4.30
2022-11-21T07:06:54.799Z,-4.20
2022-11-21T07:09:33.224Z,-4.10
2022-11-21T07:12:17.924Z,-4.10
2022-11-21T07:14:46.567Z,-4.10
2022-11-21T07:17:15.455Z,-4.00
2022-11-21T07:19:44.094Z,-4.00
2022-11-21T07:22:12.784Z,-3.90
2022-11-21T07:24:41.519Z,-3.90
2022-11-21T07:27:11.607Z,-3.80
2022-11-21T07:29:40.299Z,-3.80
2022-11-21T07:32:08.957Z,-3.80
2022-11-21T07:34:37.616Z,-3.80
2022-11-21T07:37:06.232Z,-3.70
2022-11-21T07:39:35.062Z,-3.70
2022-11-21T07:42:03.767Z,-3.70
2022-11-21T07:44:33.869Z,-3.60
2022-11-21T07:47:02.896Z,-3.50
2022-11-21T07:49:31.683Z,-3.40
2022-11-21T07:52:00.724Z,-3.40
2022-11-21T07:54:29.561Z,-3.30
2022-11-21T07:56:58.289Z,-3.20
2022-11-21T07:59:27.271Z,-3.20
2022-11-21T08:01:57.694Z,-3.10
2022-11-21T08:04:26.530Z,-3.00
2022-11-21T08:06:55.238Z,-2.80
2022-11-21T08:09:23.972Z,-2.60
2022-11-21T08:11:52.871Z,-2.60
2022-11-21T08:14:21.860Z,-2.50
2022-11-21T08:16:53.470Z,-2.50
2022-11-21T08:19:23.982Z,-2.40
2022-11-21T08:21:52.757Z,-2.40
2022-11-21T08:24:21.344Z,-2.40
2022-11-21T08:26:50.165Z,-2.30
2022-11-21T08:29:18.832Z,-2.30
2022-11-21T08:31:48.097Z,-2.20
2022-11-21T08:34:16.974Z,-2.20
2022-11-21T08:36:47.059Z,-2.10
2022-11-21T08:39:15.709Z,-2.10
2022-11-21T08:42:01.657Z,-2.00
2022-11-21T08:44:30.697Z,-2.00
2022-11-21T08:47:00.101Z,-1.90
2022-11-21T08:49:29.159Z,-1.80
2022-11-21T08:51:59.237Z,-1.80
2022-11-21T08:54:29.541Z,-1.70
2022-11-21T08:56:58.535Z,-1.60
2022-11-21T08:59:48.990Z,-1.50
2022-11-21T09:02:17.753Z,-1.40
2022-11-21T09:04:46.659Z,-1.40
2022-11-21T09:07:16.957Z,-1.30
2022-11-21T09:09:45.797Z,-1.20
2022-11-21T09:12:14.737Z,-1.10
2022-11-21T09:15:05.962Z,-1.10
2022-11-21T09:17:52.235Z,-1.00
2022-11-21T09:21:30.556Z,-0.90
2022-11-21T09:24:14.576Z,-0.70
2022-11-21T09:26:56.233Z,-0.70
2022-11-21T09:29:36.823Z,-0.60
2022-11-21T09:32:11.976Z,-0.50
2022-11-21T09:34:40.969Z,-0.30
2022-11-21T09:37:17.835Z,-0.40
2022-11-21T09:39:53.764Z,-0.30
2022-11-21T09:42:57.792Z,-0.30
2022-11-21T09:48:54.133Z,-0.20
2022-11-21T09:51:42.712Z,-0.30
2022-11-21T09:57:38.478Z,-0.30
2022-11-21T10:01:06.108Z,-0.10
2022-11-21T10:06:34.397Z,0.20
2022-11-21T10:09:32.850Z,0.20
2022-11-21T10:12:32.830Z,0.30
2022-11-21T10:15:21.152Z,0.30
2022-11-21T10:18:02.502Z,0.20
2022-11-21T10:20:48.774Z,0.20
2022-11-21T10:23:39.589Z,0.20
2022-11-21T10:26:18.077Z,0.30
2022-11-21T10:28:54.116Z,0.30
2022-11-21T10:31:33.677Z,0.40
2022-11-21T10:34:09.190Z,0.40
2022-11-21T10:36:43.642Z,0.40
2022-11-21T10:39:30.871Z,0.50
2022-11-21T10:42:20.290Z,0.50
2022-11-21T10:45:19.800Z,0.50
2022-11-21T10:47:57.159Z,0.50
2022-11-21T10:50:41.096Z,0.60
2022-11-21T10:53:40.342Z,0.80
2022-11-21T10:56:13.539Z,0.70
2022-11-21T10:58:46.546Z,0.70
2022-11-21T11:01:27.054Z,0.80
2022-11-21T11:04:43.901Z,0.90
2022-11-21T11:07:23.388Z,1.00
2022-11-21T11:09:53.916Z,1.00
2022-11-21T11:12:45.261Z,1.00
2022-11-21T11:15:25.159Z,1.00
2022-11-21T11:17:56.787Z,1.00
2022-11-21T11:20:38.169Z,1.10
2022-11-21T11:23:32.375Z,1.10
2022-11-21T11:26:02.054Z,1.20
2022-11-21T11:28:37.402Z,1.30
2022-11-21T11:31:28.611Z,1.40
2022-11-21T11:33:58.310Z,1.60
2022-11-21T11:36:40.646Z,1.60
2022-11-21T11:39:23.961Z,1.70
2022-11-21T11:43:01.189Z,1.80
2022-11-21T11:46:05.767Z,2.00
2022-11-21T11:48:56.556Z,2.40
2022-11-21T11:51:33.820Z,2.80
2022-11-21T11:54:09.322Z,2.90
2022-11-21T11:56:40.095Z,3.10
2022-11-21T11:59:17.719Z,3.20
2022-11-21T12:01:53.237Z,3.30
2022-11-21T12:04:24.132Z,3.30
2022-11-21T12:09:53.780Z,3.30
2022-11-21T12:12:37.158Z,3.30
2022-11-21T12:15:31.653Z,3.30
2022-11-21T12:18:15.405Z,3.20
2022-11-21T12:20:53.864Z,3.30
2022-11-21T12:23:25.270Z,3.30
2022-11-21T12:26:01.880Z,3.40
2022-11-21T12:28:41.481Z,3.50
2022-11-21T12:31:16.713Z,3.50
2022-11-21T12:33:57.682Z,3.50
2022-11-21T12:36:36.219Z,3.40
2022-11-21T12:39:33.716Z,3.40
2022-11-21T12:42:30.679Z,3.40
2022-11-21T12:45:12.921Z,3.60
2022-11-21T12:48:22.901Z,3.80
2022-11-21T12:51:21.649Z,3.80
2022-11-21T12:54:15.819Z,3.80
2022-11-21T12:56:50.920Z,3.70
2022-11-21T12:59:21.657Z,3.60
2022-11-21T13:01:58.363Z,3.50
2022-11-21T13:04:31.963Z,3.40
2022-11-21T13:07:01.546Z,3.30
2022-11-21T13:09:35.069Z,3.30
2022-11-21T13:12:11.584Z,3.20
2022-11-21T13:14:48.215Z,3.10
2022-11-21T13:17:42.998Z,3.00
2022-11-21T13:20:26.095Z,2.80
2022-11-21T13:22:59.263Z,2.60
2022-11-21T13:25:49.433Z,2.60
2022-11-21T13:28:38.407Z,2.50
2022-11-21T13:31:30.234Z,2.40
2022-11-21T13:33:59.370Z,2.30
2022-11-21T13:36:40.439Z,2.30
2022-11-21T13:39:36.950Z,2.10
2022-11-21T13:42:30.412Z,2.10
2022-11-21T13:45:01.168Z,2.20
2022-11-21T13:48:13.492Z,2.20
2022-11-21T13:51:00.733Z,2.20
2022-11-21T13:54:09.835Z,2.20
2022-11-21T13:56:47.197Z,2.20
2022-11-21T13:59:36.768Z,2.10
2022-11-21T14:02:28.127Z,2.10
2022-11-21T14:05:16.998Z,2.20
2022-11-21T14:07:47.871Z,2.10
2022-11-21T14:10:34.382Z,2.00
2022-11-21T14:13:04.683Z,2.00
2022-11-21T14:15:42.825Z,2.10
2022-11-21T14:18:22.627Z,2.10
2022-11-21T14:20:57.269Z,2.10
2022-11-21T14:23:28.044Z,2.10
2022-11-21T14:25:58.567Z,2.10
2022-11-21T14:28:29.443Z,2.10
2022-11-21T14:31:00.826Z,2.10
2022-11-21T14:33:33.809Z,2.10
2022-11-21T14:36:05.785Z,2.10
2022-11-21T14:38:38.176Z,2.10
2022-11-21T14:41:32.311Z,2.10
2022-11-21T14:44:07.272Z,2.10
2022-11-21T14:46:37.102Z,2.10
2022-11-21T14:49:29.532Z,2.10
2022-11-21T14:52:19.693Z,2.00
2022-11-21T14:57:44.087Z,1.90
2022-11-21T15:03:20.139Z,1.80
2022-11-21T15:06:08.591Z,1.80
2022-11-21T15:11:34.271Z,1.70
2022-11-21T15:14:16.719Z,1.70
2022-11-21T15:16:47.548Z,1.70
2022-11-21T15:19:22.329Z,1.60
2022-11-21T15:21:54.001Z,1.70
2022-11-21T15:24:32.676Z,1.70
2022-11-21T15:27:01.925Z,1.70
2022-11-21T15:29:32.564Z,1.70
2022-11-21T15:32:10.492Z,1.60
2022-11-21T15:34:42.897Z,1.60
2022-11-21T15:37:18.830Z,1.70
2022-11-21T15:39:50.229Z,1.70
2022-11-21T15:42:38.373Z,1.70
2022-11-21T15:45:25.542Z,1.70
2022-11-21T15:47:55.788Z,1.60
2022-11-21T15:50:25.550Z,1.60
2022-11-21T15:52:55.746Z,1.60
2022-11-21T15:55:29.378Z,1.60
2022-11-21T15:57:58.475Z,1.60
2022-11-21T16:00:27.364Z,1.60
2022-11-21T16:02:56.485Z,1.60
2022-11-21T16:05:25.245Z,1.50
2022-11-21T16:07:55.550Z,1.50
2022-11-21T16:10:27.801Z,1.50
2022-11-21T16:12:57.014Z,1.50
2022-11-21T16:15:25.801Z,1.60
2022-11-21T16:17:54.744Z,1.50
2022-11-21T16:20:23.501Z,1.50
2022-11-21T16:22:52.113Z,1.40
2022-11-21T16:25:22.159Z,1.40
2022-11-21T16:27:50.775Z,1.40
2022-11-21T16:30:19.533Z,1.40
2022-11-21T16:32:48.245Z,1.30
2022-11-21T16:35:17.110Z,1.30
2022-11-21T16:37:47.111Z,1.30
2022-11-21T16:40:16.071Z,1.40
2022-11-21T16:42:47.008Z,1.40
2022-11-21T16:45:15.717Z,1.30
2022-11-21T16:47:48.719Z,1.40
2022-11-21T16:50:18.499Z,1.40
2022-11-21T16:52:47.179Z,1.30
2022-11-21T16:55:15.943Z,1.40
2022-11-21T16:57:46.241Z,1.40
2022-11-21T17:00:15.704Z,1.30
2022-11-21T17:02:44.261Z,1.30
2022-11-21T17:05:13.076Z,1.30
2022-11-21T17:07:41.845Z,1.30
2022-11-21T17:10:11.188Z,1.40
2022-11-21T17:12:40.399Z,1.40
2022-11-21T17:15:13.425Z,1.40
2022-11-21T17:17:42.454Z,1.40
2022-11-21T17:20:12.496Z,1.40
2022-11-21T17:22:41.119Z,1.40
2022-11-21T17:25:10.537Z,1.40
2022-11-21T17:27:39.230Z,1.40
2022-11-21T17:30:11.360Z,1.40
2022-11-21T17:32:40.235Z,1.40
2022-11-21T17:35:09.905Z,1.40
2022-11-21T17:37:38.805Z,1.40
2022-11-21T17:40:12.314Z,1.40
2022-11-21T17:42:43.455Z,1.40
2022-11-21T17:45:14.127Z,1.40
2022-11-21T17:47:44.388Z,1.50
2022-11-21T17:50:13.240Z,1.50
2022-11-21T17:52:41.941Z,1.60
2022-11-21T17:55:10.830Z,1.50
2022-11-21T17:57:39.797Z,1.50
2022-11-21T18:00:09.728Z,1.60
2022-11-21T18:02:39.952Z,1.60
2022-11-21T18:05:09.027Z,1.70
2022-11-21T18:07:37.972Z,1.70
2022-11-21T18:10:35.285Z,1.60
2022-11-21T18:12:56.132Z,1.70
2022-11-21T18:15:24.732Z,1.60
2022-11-21T18:17:54.702Z,1.70
2022-11-21T18:20:24.370Z,1.70
2022-11-21T18:22:53.036Z,1.70
2022-11-21T18:25:22.091Z,1.70
2022-11-21T18:27:54.917Z,1.70
2022-11-21T18:30:24.245Z,1.70
2022-11-21T18:32:54.787Z,1.70
2022-11-21T18:35:23.379Z,1.80
2022-11-21T18:37:52.317Z,1.80
2022-11-21T18:40:25.984Z,1.80
2022-11-21T18:42:54.618Z,1.70
2022-11-21T18:45:23.192Z,1.80
2022-11-21T18:47:51.820Z,1.80
2022-11-21T18:50:21.958Z,1.80
2022-11-21T18:52:50.550Z,1.80
2022-11-21T18:55:19.160Z,1.80
2022-11-21T18:57:47.808Z,1.80
2022-11-21T19:00:17.158Z,1.90
2022-11-21T19:02:46.034Z,1.90
2022-11-21T19:05:20.227Z,1.80
2022-11-21T19:07:53.630Z,1.90
2022-11-21T19:10:42.478Z,1.80
2022-11-21T19:13:11.146Z,1.80
2022-11-21T19:15:39.853Z,1.80
2022-11-21T19:18:08.532Z,1.80
2022-11-21T19:20:43.048Z,1.80
2022-11-21T19:23:13.097Z,1.80
2022-11-21T19:25:41.776Z,1.90
2022-11-21T19:28:10.673Z,1.90
2022-11-21T19:30:39.283Z,1.90
2022-11-21T19:33:08.292Z,1.90
2022-11-21T19:35:41.842Z,2.00
2022-11-21T19:38:10.492Z,2.00
2022-11-21T19:40:54.353Z,1.90
2022-11-21T19:43:24.068Z,2.00
2022-11-21T19:45:57.890Z,2.00
2022-11-21T19:48:27.073Z,1.90
2022-11-21T19:50:58.907Z,1.90
2022-11-21T19:53:28.369Z,1.90
2022-11-21T19:55:58.451Z,2.00
2022-11-21T19:58:27.718Z,2.00
2022-11-21T20:00:56.866Z,2.00
2022-11-21T20:03:25.660Z,2.00
2022-11-21T20:05:54.514Z,2.00
2022-11-21T20:08:23.262Z,2.00
2022-11-21T20:10:51.902Z,2.00
2022-11-21T20:13:22.121Z,2.00
2022-11-21T20:15:50.763Z,2.00
2022-11-21T20:18:19.682Z,2.00
2022-11-21T20:20:48.570Z,2.00
2022-11-21T20:23:17.275Z,2.00
2022-11-21T20:25:51.009Z,2.00
2022-11-21T20:28:19.958Z,2.00
2022-11-21T20:30:49.992Z,2.00
2022-11-21T20:33:18.808Z,2.00
2022-11-21T20:35:47.566Z,2.00
2022-11-21T20:38:20.112Z,2.10
2022-11-21T20:40:54.226Z,2.10
2022-11-21T20:43:22.811Z,2.10
2022-11-21T20:46:11.754Z,2.10
2022-11-21T20:48:41.867Z,2.10
2022-11-21T20:54:03.337Z,2.10
2022-11-21T20:56:34.825Z,2.10
2022-11-21T20:59:03.929Z,2.10
2022-11-21T21:01:34.661Z,2.10
2022-11-21T21:04:03.438Z,2.10
2022-11-21T21:06:32.506Z,2.00
2022-11-21T21:09:01.170Z,2.00
2022-11-21T21:11:50.950Z,2.00
2022-11-21T21:14:19.175Z,2.00
2022-11-21T21:16:51.779Z,1.90
2022-11-21T21:19:21.623Z,1.90
2022-11-21T21:21:50.251Z,1.90
2022-11-21T21:24:19.313Z,1.80
2022-11-21T21:26:51.872Z,1.80
2022-11-21T21:29:22.173Z,1.80
2022-11-21T21:31:52.987Z,1.80
2022-11-21T21:34:23.051Z,1.80
2022-11-21T21:36:52.142Z,1.90
2022-11-21T21:39:20.919Z,1.90
2022-11-21T21:41:49.767Z,1.90
2022-11-21T21:44:18.396Z,1.90
2022-11-21T21:46:47.317Z,1.90
2022-11-21T21:49:17.331Z,1.90
2022-11-21T21:51:47.059Z,2.00
2022-11-21T21:54:23.409Z,1.90
2022-11-21T21:56:52.479Z,2.00
2022-11-21T21:59:21.243Z,2.00
2022-11-21T22:01:51.813Z,1.90
2022-11-21T22:04:22.158Z,2.00
2022-11-21T22:06:50.745Z,2.00
2022-11-21T22:09:19.387Z,2.00
2022-11-21T22:11:48.031Z,2.00
2022-11-21T22:14:18.019Z,2.00
2022-11-21T22:16:46.989Z,2.00
2022-11-21T22:19:15.724Z,2.00
2022-11-21T22:22:02.053Z,2.00
2022-11-21T22:24:30.611Z,2.00
2022-11-21T22:26:59.379Z,2.00
2022-11-21T22:29:28.037Z,2.00
2022-11-21T22:31:56.813Z,2.00
2022-11-21T22:34:26.801Z,2.00
2022-11-21T22:36:55.380Z,2.00
2022-11-21T22:39:26.944Z,1.90
2022-11-21T22:41:59.741Z,1.90
2022-11-21T22:44:28.920Z,1.90
2022-11-21T22:47:01.492Z,2.00
2022-11-21T22:49:33.021Z,2.00
2022-11-21T22:52:04.906Z,2.00
2022-11-21T22:54:37.979Z,2.00
2022-11-21T22:57:08.415Z,1.90
2022-11-21T22:59:40.248Z,2.00
2022-11-21T23:02:10.155Z,1.90
2022-11-21T23:04:41.296Z,1.90
2022-11-21T23:07:13.270Z,1.90
2022-11-21T23:09:46.802Z,2.00
2022-11-21T23:12:15.769Z,2.00
2022-11-21T23:14:47.246Z,2.00
2022-11-21T23:17:16.692Z,2.00
2022-11-21T23:19:45.382Z,2.00
2022-11-21T23:22:15.814Z,1.90
2022-11-21T23:24:46.598Z,2.00
2022-11-21T23:27:17.947Z,2.00
2022-11-21T23:29:51.054Z,2.00
2022-11-21T23:32:21.361Z,2.00
2022-11-21T23:34:52.625Z,2.00
2022-11-21T23:37:22.666Z,2.00
2022-11-21T23:39:54.317Z,2.00
2022-11-21T23:42:26.043Z,2.00
2022-11-21T23:44:56.784Z,2.00
2022-11-21T23:47:28.947Z,2.00
2022-11-21T23:49:57.585Z,2.00
2022-11-21T23:52:27.623Z,2.00
2022-11-21T23:55:05.744Z,2.00
2022-11-21T23:57:41.365Z,2.00
